Terminal Aerodrome Forecast
Issued by NWS Rapid City, SD

Home | Current Version | Previous Version | Text Only | Print | Product List | Glossary Off
Versions: 1 2 3 4 5 6 7 8 9 10 11 12 13 14 15 16 17 18 19 20 21 22 23

000
FTUS43 KUNR 181600 AAB
TAFRAP
TAF AMD
KRAP 181607Z 1816/1912 16005KT 1SM BR OVC003
      TEMPO 1816/1817 1/4SM FG OVC002
     FM181700 15008KT 3SM BR OVC006
      TEMPO 1817/1818 6SM BR BKN015
     FM181800 19005KT P6SM SCT100
     FM190100 VRB05KT P6SM SCT200=

USA.gov is the U.S. government's official web portal to all federal, state and local government web resources and services.